Terminal Aerodrome Forecast
Issued by NWS Wilmington, NC

Home | Current Version | Previous Version | Text Only | Print | Product List | Glossary On
Versions: 1 2 3 4 5 6 7 8 9 10 11 12 13 14 15 16 17 18 19 20 21
000
FTUS42 KILM 211307 AAB
TAFFLO
TAF AMD
KFLO 211307Z 2113/2212 14004KT 5SM BR VCSH SCT007 OVC015
      TEMPO 2113/2114 1/2SM FG BKN015
     FM211600 17008KT 5SM BR VCSH OVC010
     FM212300 20007KT 4SM BR VCSH OVC007
     FM220300 21005KT 1/2SM FG OVC002=

USA.gov is the U.S. government's official web portal to all federal, state and local government web resources and services.